sensor_id;sensor_type;location;lat;lon;timestamp;P1;durP1;ratioP1;P2;durP2;ratioP2
68438;SDS011;55421;51.600;5.718;2022-12-18T00:03:52;52.60;;;20.20;;
68438;SDS011;55421;51.600;5.718;2022-12-18T00:06:21;58.10;;;21.40;;
68438;SDS011;55421;51.600;5.718;2022-12-18T00:08:48;52.50;;;20.00;;
68438;SDS011;55421;51.600;5.718;2022-12-18T00:11:18;58.00;;;21.60;;
68438;SDS011;55421;51.600;5.718;2022-12-18T00:13:47;50.10;;;21.70;;
68438;SDS011;55421;51.600;5.718;2022-12-18T00:16:17;54.00;;;20.60;;
68438;SDS011;55421;51.600;5.718;2022-12-18T00:18:49;54.20;;;21.40;;
68438;SDS011;55421;51.600;5.718;2022-12-18T00:21:18;56.70;;;20.50;;
68438;SDS011;55421;51.600;5.718;2022-12-18T00:23:47;47.00;;;19.70;;
68438;SDS011;55421;51.600;5.718;2022-12-18T00:26:20;54.00;;;19.70;;
68438;SDS011;55421;51.600;5.718;2022-12-18T00:28:49;54.90;;;21.40;;
68438;SDS011;55421;51.600;5.718;2022-12-18T00:31:21;54.00;;;20.90;;
68438;SDS011;55421;51.600;5.718;2022-12-18T00:33:49;55.10;;;21.70;;
68438;SDS011;55421;51.600;5.718;2022-12-18T00:36:20;48.10;;;20.00;;
68438;SDS011;55421;51.600;5.718;2022-12-18T00:38:54;51.90;;;19.50;;
68438;SDS011;55421;51.600;5.718;2022-12-18T00:41:22;52.20;;;21.50;;
68438;SDS011;55421;51.600;5.718;2022-12-18T00:44:09;51.30;;;21.40;;
68438;SDS011;55421;51.600;5.718;2022-12-18T00:46:38;58.50;;;22.70;;
68438;SDS011;55421;51.600;5.718;2022-12-18T00:49:08;53.50;;;21.60;;
68438;SDS011;55421;51.600;5.718;2022-12-18T00:51:34;55.70;;;21.40;;
68438;SDS011;55421;51.600;5.718;2022-12-18T00:54:01;49.30;;;21.40;;
68438;SDS011;55421;51.600;5.718;2022-12-18T00:56:27;49.40;;;22.00;;
68438;SDS011;55421;51.600;5.718;2022-12-18T00:58:54;55.50;;;21.20;;
68438;SDS011;55421;51.600;5.718;2022-12-18T01:01:20;49.00;;;21.50;;
68438;SDS011;55421;51.600;5.718;2022-12-18T01:03:47;50.20;;;21.50;;
68438;SDS011;55421;51.600;5.718;2022-12-18T01:06:15;49.60;;;20.20;;
68438;SDS011;55421;51.600;5.718;2022-12-18T01:08:42;53.00;;;20.90;;
68438;SDS011;55421;51.600;5.718;2022-12-18T01:11:12;47.70;;;20.10;;
68438;SDS011;55421;51.600;5.718;2022-12-18T01:13:41;46.60;;;20.80;;
68438;SDS011;55421;51.600;5.718;2022-12-18T01:16:11;45.60;;;19.40;;
68438;SDS011;55421;51.600;5.718;2022-12-18T01:18:39;48.90;;;19.90;;
68438;SDS011;55421;51.600;5.718;2022-12-18T01:21:08;57.70;;;20.50;;
68438;SDS011;55421;51.600;5.718;2022-12-18T01:23:36;46.10;;;18.20;;
68438;SDS011;55421;51.600;5.718;2022-12-18T01:26:07;44.50;;;19.10;;
68438;SDS011;55421;51.600;5.718;2022-12-18T01:28:36;46.50;;;18.40;;
68438;SDS011;55421;51.600;5.718;2022-12-18T01:31:18;45.50;;;18.80;;
68438;SDS011;55421;51.600;5.718;2022-12-18T01:33:46;50.70;;;19.20;;
68438;SDS011;55421;51.600;5.718;2022-12-18T01:36:21;54.50;;;20.70;;
68438;SDS011;55421;51.600;5.718;2022-12-18T01:38:50;48.10;;;20.30;;
68438;SDS011;55421;51.600;5.718;2022-12-18T01:41:21;52.70;;;20.20;;
68438;SDS011;55421;51.600;5.718;2022-12-18T01:43:55;41.10;;;18.10;;
68438;SDS011;55421;51.600;5.718;2022-12-18T01:46:26;47.50;;;19.20;;
68438;SDS011;55421;51.600;5.718;2022-12-18T01:48:57;50.70;;;19.50;;
68438;SDS011;55421;51.600;5.718;2022-12-18T01:51:27;42.60;;;18.30;;
68438;SDS011;55421;51.600;5.718;2022-12-18T01:53:56;43.70;;;19.20;;
68438;SDS011;55421;51.600;5.718;2022-12-18T01:56:24;49.60;;;21.50;;
68438;SDS011;55421;51.600;5.718;2022-12-18T01:58:58;45.40;;;17.20;;
68438;SDS011;55421;51.600;5.718;2022-12-18T02:01:30;43.80;;;17.40;;
68438;SDS011;55421;51.600;5.718;2022-12-18T02:04:27;43.10;;;16.30;;
68438;SDS011;55421;51.600;5.718;2022-12-18T02:07:21;29.50;;;13.60;;
68438;SDS011;55421;51.600;5.718;2022-12-18T02:10:00;31.80;;;13.80;;
68438;SDS011;55421;51.600;5.718;2022-12-18T02:12:53;42.10;;;17.80;;
68438;SDS011;55421;51.600;5.718;2022-12-18T02:15:37;45.40;;;18.20;;
68438;SDS011;55421;51.600;5.718;2022-12-18T02:18:21;36.10;;;17.00;;
68438;SDS011;55421;51.600;5.718;2022-12-18T02:24:34;40.40;;;17.80;;
68438;SDS011;55421;51.600;5.718;2022-12-18T02:27:05;41.20;;;17.90;;
68438;SDS011;55421;51.600;5.718;2022-12-18T02:29:37;42.20;;;18.60;;
68438;SDS011;55421;51.600;5.718;2022-12-18T02:32:14;41.20;;;17.70;;
68438;SDS011;55421;51.600;5.718;2022-12-18T02:34:45;37.30;;;16.80;;
68438;SDS011;55421;51.600;5.718;2022-12-18T02:37:15;37.20;;;16.60;;
68438;SDS011;55421;51.600;5.718;2022-12-18T02:39:46;36.00;;;17.30;;
68438;SDS011;55421;51.600;5.718;2022-12-18T02:42:16;36.10;;;16.60;;
68438;SDS011;55421;51.600;5.718;2022-12-18T02:44:47;40.50;;;18.60;;
68438;SDS011;55421;51.600;5.718;2022-12-18T02:47:18;45.50;;;19.60;;
68438;SDS011;55421;51.600;5.718;2022-12-18T02:53:10;42.70;;;18.00;;
68438;SDS011;55421;51.600;5.718;2022-12-18T02:59:01;34.30;;;16.30;;
68438;SDS011;55421;51.600;5.718;2022-12-18T03:01:36;35.70;;;15.90;;
68438;SDS011;55421;51.600;5.718;2022-12-18T03:06:52;37.90;;;15.60;;
68438;SDS011;55421;51.600;5.718;2022-12-18T03:09:43;35.70;;;16.30;;
68438;SDS011;55421;51.600;5.718;2022-12-18T03:12:19;34.50;;;16.00;;
68438;SDS011;55421;51.600;5.718;2022-12-18T03:14:56;32.10;;;16.20;;
68438;SDS011;55421;51.600;5.718;2022-12-18T03:17:49;31.60;;;14.10;;
68438;SDS011;55421;51.600;5.718;2022-12-18T03:20:22;34.50;;;16.30;;
68438;SDS011;55421;51.600;5.718;2022-12-18T03:25:27;37.30;;;15.60;;
68438;SDS011;55421;51.600;5.718;2022-12-18T03:27:58;37.70;;;16.10;;
68438;SDS011;55421;51.600;5.718;2022-12-18T03:30:29;36.50;;;15.40;;
68438;SDS011;55421;51.600;5.718;2022-12-18T03:35:54;28.00;;;14.50;;
68438;SDS011;55421;51.600;5.718;2022-12-18T03:38:21;30.70;;;14.20;;
68438;SDS011;55421;51.600;5.718;2022-12-18T03:43:57;37.20;;;15.80;;
68438;SDS011;55421;51.600;5.718;2022-12-18T03:52:35;29.50;;;13.90;;
68438;SDS011;55421;51.600;5.718;2022-12-18T03:55:07;35.90;;;14.30;;
68438;SDS011;55421;51.600;5.718;2022-12-18T03:57:36;33.90;;;14.80;;
68438;SDS011;55421;51.600;5.718;2022-12-18T04:00:11;26.50;;;12.80;;
68438;SDS011;55421;51.600;5.718;2022-12-18T04:02:48;24.90;;;9.50;;
68438;SDS011;55421;51.600;5.718;2022-12-18T04:05:20;26.50;;;11.90;;
68438;SDS011;55421;51.600;5.718;2022-12-18T04:07:49;22.30;;;10.00;;
68438;SDS011;55421;51.600;5.718;2022-12-18T04:10:18;31.10;;;14.30;;
68438;SDS011;55421;51.600;5.718;2022-12-18T04:12:45;29.30;;;13.70;;
68438;SDS011;55421;51.600;5.718;2022-12-18T04:15:13;25.30;;;13.00;;
68438;SDS011;55421;51.600;5.718;2022-12-18T04:17:47;24.20;;;13.20;;
68438;SDS011;55421;51.600;5.718;2022-12-18T04:20:15;27.30;;;12.90;;
68438;SDS011;55421;51.600;5.718;2022-12-18T04:22:43;31.70;;;13.20;;
68438;SDS011;55421;51.600;5.718;2022-12-18T04:25:10;29.50;;;13.10;;
68438;SDS011;55421;51.600;5.718;2022-12-18T04:27:36;31.00;;;14.10;;
68438;SDS011;55421;51.600;5.718;2022-12-18T04:30:03;26.40;;;13.30;;
68438;SDS011;55421;51.600;5.718;2022-12-18T04:32:30;25.70;;;13.20;;
68438;SDS011;55421;51.600;5.718;2022-12-18T04:34:56;26.60;;;12.90;;
68438;SDS011;55421;51.600;5.718;2022-12-18T04:37:23;25.20;;;12.00;;
68438;SDS011;55421;51.600;5.718;2022-12-18T04:39:49;27.00;;;12.20;;
68438;SDS011;55421;51.600;5.718;2022-12-18T04:42:16;35.10;;;13.30;;
68438;SDS011;55421;51.600;5.718;2022-12-18T04:44:43;25.70;;;12.50;;
68438;SDS011;55421;51.600;5.718;2022-12-18T04:47:09;28.00;;;13.20;;
68438;SDS011;55421;51.600;5.718;2022-12-18T04:49:37;25.70;;;13.30;;
68438;SDS011;55421;51.600;5.718;2022-12-18T04:52:04;23.10;;;11.70;;
68438;SDS011;55421;51.600;5.718;2022-12-18T04:54:30;32.90;;;13.00;;
68438;SDS011;55421;51.600;5.718;2022-12-18T04:56:57;28.70;;;12.50;;
68438;SDS011;55421;51.600;5.718;2022-12-18T04:59:23;30.70;;;13.70;;
68438;SDS011;55421;51.600;5.718;2022-12-18T05:01:50;27.60;;;12.60;;
68438;SDS011;55421;51.600;5.718;2022-12-18T05:04:16;28.30;;;13.10;;
68438;SDS011;55421;51.600;5.718;2022-12-18T05:06:43;28.40;;;12.80;;
68438;SDS011;55421;51.600;5.718;2022-12-18T05:09:09;24.30;;;12.70;;
68438;SDS011;55421;51.600;5.718;2022-12-18T05:11:36;24.40;;;11.90;;
68438;SDS011;55421;51.600;5.718;2022-12-18T05:14:02;24.10;;;11.90;;
68438;SDS011;55421;51.600;5.718;2022-12-18T05:16:29;27.70;;;13.40;;
68438;SDS011;55421;51.600;5.718;2022-12-18T05:18:55;30.80;;;12.50;;
68438;SDS011;55421;51.600;5.718;2022-12-18T05:21:22;31.20;;;12.60;;
68438;SDS011;55421;51.600;5.718;2022-12-18T05:23:48;31.20;;;13.20;;
68438;SDS011;55421;51.600;5.718;2022-12-18T05:26:17;25.80;;;12.80;;
68438;SDS011;55421;51.600;5.718;2022-12-18T05:28:45;25.00;;;12.30;;
68438;SDS011;55421;51.600;5.718;2022-12-18T05:31:12;25.40;;;13.00;;
68438;SDS011;55421;51.600;5.718;2022-12-18T05:33:40;26.50;;;13.20;;
68438;SDS011;55421;51.600;5.718;2022-12-18T05:36:08;23.20;;;12.50;;
68438;SDS011;55421;51.600;5.718;2022-12-18T05:38:37;30.00;;;12.70;;
68438;SDS011;55421;51.600;5.718;2022-12-18T05:41:05;28.20;;;12.70;;
68438;SDS011;55421;51.600;5.718;2022-12-18T05:43:34;26.60;;;13.20;;
68438;SDS011;55421;51.600;5.718;2022-12-18T05:46:08;27.10;;;13.30;;
68438;SDS011;55421;51.600;5.718;2022-12-18T05:48:39;26.00;;;12.30;;
68438;SDS011;55421;51.600;5.718;2022-12-18T05:51:11;24.40;;;11.40;;
68438;SDS011;55421;51.600;5.718;2022-12-18T05:53:42;27.70;;;12.80;;
68438;SDS011;55421;51.600;5.718;2022-12-18T05:56:13;24.80;;;12.00;;
68438;SDS011;55421;51.600;5.718;2022-12-18T05:58:41;24.30;;;12.40;;
68438;SDS011;55421;51.600;5.718;2022-12-18T06:01:19;26.80;;;13.10;;
68438;SDS011;55421;51.600;5.718;2022-12-18T06:03:48;33.10;;;13.10;;
68438;SDS011;55421;51.600;5.718;2022-12-18T06:06:23;25.60;;;12.50;;
68438;SDS011;55421;51.600;5.718;2022-12-18T06:08:52;27.30;;;12.20;;
68438;SDS011;55421;51.600;5.718;2022-12-18T06:11:24;27.70;;;13.40;;
68438;SDS011;55421;51.600;5.718;2022-12-18T06:13:53;29.50;;;13.50;;
68438;SDS011;55421;51.600;5.718;2022-12-18T06:16:21;28.50;;;13.40;;
68438;SDS011;55421;51.600;5.718;2022-12-18T06:18:48;30.70;;;13.50;;
68438;SDS011;55421;51.600;5.718;2022-12-18T06:21:14;28.70;;;14.00;;
68438;SDS011;55421;51.600;5.718;2022-12-18T06:23:41;27.20;;;13.90;;
68438;SDS011;55421;51.600;5.718;2022-12-18T06:26:10;20.70;;;11.30;;
68438;SDS011;55421;51.600;5.718;2022-12-18T06:28:38;26.20;;;13.30;;
68438;SDS011;55421;51.600;5.718;2022-12-18T06:31:05;28.70;;;13.00;;
68438;SDS011;55421;51.600;5.718;2022-12-18T06:33:33;24.40;;;12.90;;
68438;SDS011;55421;51.600;5.718;2022-12-18T06:36:03;28.50;;;14.40;;
68438;SDS011;55421;51.600;5.718;2022-12-18T06:38:33;29.30;;;12.80;;
68438;SDS011;55421;51.600;5.718;2022-12-18T06:41:06;29.10;;;14.10;;
68438;SDS011;55421;51.600;5.718;2022-12-18T06:43:37;24.80;;;12.70;;
68438;SDS011;55421;51.600;5.718;2022-12-18T06:46:04;24.70;;;13.20;;
68438;SDS011;55421;51.600;5.718;2022-12-18T06:48:32;25.90;;;12.70;;
68438;SDS011;55421;51.600;5.718;2022-12-18T06:50:59;26.10;;;11.60;;
68438;SDS011;55421;51.600;5.718;2022-12-18T06:53:26;20.90;;;11.50;;
68438;SDS011;55421;51.600;5.718;2022-12-18T06:56:00;26.50;;;12.00;;
68438;SDS011;55421;51.600;5.718;2022-12-18T06:58:28;18.60;;;8.10;;
68438;SDS011;55421;51.600;5.718;2022-12-18T07:01:02;27.10;;;11.70;;
68438;SDS011;55421;51.600;5.718;2022-12-18T07:03:30;29.00;;;13.40;;
68438;SDS011;55421;51.600;5.718;2022-12-18T07:05:57;35.40;;;15.90;;
68438;SDS011;55421;51.600;5.718;2022-12-18T07:08:24;27.70;;;14.20;;
68438;SDS011;55421;51.600;5.718;2022-12-18T07:10:51;26.00;;;12.80;;
68438;SDS011;55421;51.600;5.718;2022-12-18T07:13:17;24.20;;;12.70;;
68438;SDS011;55421;51.600;5.718;2022-12-18T07:15:44;28.80;;;12.60;;
68438;SDS011;55421;51.600;5.718;2022-12-18T07:18:10;25.90;;;12.40;;
68438;SDS011;55421;51.600;5.718;2022-12-18T07:20:37;26.60;;;12.60;;
68438;SDS011;55421;51.600;5.718;2022-12-18T07:23:04;23.00;;;11.80;;
68438;SDS011;55421;51.600;5.718;2022-12-18T07:25:35;22.30;;;9.90;;
68438;SDS011;55421;51.600;5.718;2022-12-18T07:28:03;22.50;;;10.70;;
68438;SDS011;55421;51.600;5.718;2022-12-18T07:30:30;29.30;;;13.00;;
68438;SDS011;55421;51.600;5.718;2022-12-18T07:32:57;26.40;;;13.20;;
68438;SDS011;55421;51.600;5.718;2022-12-18T07:35:23;22.80;;;12.00;;
68438;SDS011;55421;51.600;5.718;2022-12-18T07:37:50;26.60;;;12.60;;
68438;SDS011;55421;51.600;5.718;2022-12-18T07:40:16;23.60;;;11.70;;
68438;SDS011;55421;51.600;5.718;2022-12-18T07:42:43;21.20;;;10.40;;
68438;SDS011;55421;51.600;5.718;2022-12-18T07:45:09;26.50;;;11.70;;
68438;SDS011;55421;51.600;5.718;2022-12-18T07:47:37;20.20;;;9.50;;
68438;SDS011;55421;51.600;5.718;2022-12-18T07:50:04;26.90;;;12.50;;
68438;SDS011;55421;51.600;5.718;2022-12-18T07:52:31;23.60;;;11.40;;
68438;SDS011;55421;51.600;5.718;2022-12-18T07:54:58;26.40;;;13.50;;
68438;SDS011;55421;51.600;5.718;2022-12-18T07:57:24;25.40;;;11.60;;
68438;SDS011;55421;51.600;5.718;2022-12-18T07:59:51;25.90;;;11.60;;
68438;SDS011;55421;51.600;5.718;2022-12-18T08:02:17;27.10;;;12.50;;
68438;SDS011;55421;51.600;5.718;2022-12-18T08:04:44;27.40;;;13.10;;
68438;SDS011;55421;51.600;5.718;2022-12-18T08:07:13;25.50;;;13.60;;
68438;SDS011;55421;51.600;5.718;2022-12-18T08:09:40;20.90;;;9.80;;
68438;SDS011;55421;51.600;5.718;2022-12-18T08:12:06;23.20;;;12.70;;
68438;SDS011;55421;51.600;5.718;2022-12-18T08:14:33;23.90;;;11.00;;
68438;SDS011;55421;51.600;5.718;2022-12-18T08:16:59;21.80;;;10.80;;
68438;SDS011;55421;51.600;5.718;2022-12-18T08:19:26;20.00;;;9.60;;
68438;SDS011;55421;51.600;5.718;2022-12-18T08:21:52;27.70;;;13.80;;
68438;SDS011;55421;51.600;5.718;2022-12-18T08:24:19;27.10;;;12.30;;
68438;SDS011;55421;51.600;5.718;2022-12-18T08:26:45;21.80;;;10.90;;
68438;SDS011;55421;51.600;5.718;2022-12-18T08:29:12;23.80;;;10.30;;
68438;SDS011;55421;51.600;5.718;2022-12-18T08:31:39;15.90;;;8.50;;
68438;SDS011;55421;51.600;5.718;2022-12-18T08:34:05;22.50;;;12.00;;
68438;SDS011;55421;51.600;5.718;2022-12-18T08:36:32;17.70;;;8.80;;
68438;SDS011;55421;51.600;5.718;2022-12-18T08:38:58;24.00;;;11.80;;
68438;SDS011;55421;51.600;5.718;2022-12-18T08:41:25;23.90;;;11.30;;
68438;SDS011;55421;51.600;5.718;2022-12-18T08:43:52;25.50;;;12.70;;
68438;SDS011;55421;51.600;5.718;2022-12-18T08:46:39;28.90;;;12.20;;
68438;SDS011;55421;51.600;5.718;2022-12-18T08:49:08;18.60;;;9.10;;
68438;SDS011;55421;51.600;5.718;2022-12-18T08:51:36;29.40;;;12.90;;
68438;SDS011;55421;51.600;5.718;2022-12-18T08:54:04;25.10;;;12.30;;
68438;SDS011;55421;51.600;5.718;2022-12-18T08:56:31;21.80;;;9.80;;
68438;SDS011;55421;51.600;5.718;2022-12-18T08:58:58;23.40;;;10.80;;
68438;SDS011;55421;51.600;5.718;2022-12-18T09:01:24;21.90;;;12.20;;
68438;SDS011;55421;51.600;5.718;2022-12-18T09:03:51;23.40;;;11.50;;
68438;SDS011;55421;51.600;5.718;2022-12-18T09:06:21;18.40;;;10.00;;
68438;SDS011;55421;51.600;5.718;2022-12-18T09:11:21;24.60;;;12.50;;
68438;SDS011;55421;51.600;5.718;2022-12-18T09:13:50;24.30;;;12.70;;
68438;SDS011;55421;51.600;5.718;2022-12-18T09:16:18;26.50;;;13.00;;
68438;SDS011;55421;51.600;5.718;2022-12-18T09:18:46;23.60;;;10.70;;
68438;SDS011;55421;51.600;5.718;2022-12-18T09:21:15;26.30;;;13.20;;
68438;SDS011;55421;51.600;5.718;2022-12-18T09:23:51;28.50;;;11.40;;
68438;SDS011;55421;51.600;5.718;2022-12-18T09:26:18;24.00;;;12.70;;
68438;SDS011;55421;51.600;5.718;2022-12-18T09:28:47;21.20;;;9.00;;
68438;SDS011;55421;51.600;5.718;2022-12-18T09:31:13;25.40;;;12.00;;
68438;SDS011;55421;51.600;5.718;2022-12-18T09:33:40;28.60;;;13.00;;
68438;SDS011;55421;51.600;5.718;2022-12-18T09:36:09;29.30;;;13.70;;
68438;SDS011;55421;51.600;5.718;2022-12-18T09:44:03;22.90;;;11.70;;
68438;SDS011;55421;51.600;5.718;2022-12-18T09:46:42;26.50;;;11.90;;
68438;SDS011;55421;51.600;5.718;2022-12-18T09:49:16;26.80;;;14.00;;
68438;SDS011;55421;51.600;5.718;2022-12-18T09:51:56;16.30;;;7.90;;
68438;SDS011;55421;51.600;5.718;2022-12-18T09:54:33;20.90;;;10.40;;
68438;SDS011;55421;51.600;5.718;2022-12-18T09:57:04;25.50;;;11.50;;
68438;SDS011;55421;51.600;5.718;2022-12-18T09:59:38;23.90;;;12.30;;
68438;SDS011;55421;51.600;5.718;2022-12-18T10:02:29;26.00;;;13.00;;
68438;SDS011;55421;51.600;5.718;2022-12-18T10:07:43;25.00;;;12.70;;
68438;SDS011;55421;51.600;5.718;2022-12-18T10:10:32;28.30;;;13.70;;
68438;SDS011;55421;51.600;5.718;2022-12-18T10:21:46;20.20;;;9.40;;
68438;SDS011;55421;51.600;5.718;2022-12-18T10:24:41;24.50;;;11.90;;
68438;SDS011;55421;51.600;5.718;2022-12-18T10:27:26;26.80;;;12.60;;
68438;SDS011;55421;51.600;5.718;2022-12-18T10:29:54;26.50;;;13.50;;
68438;SDS011;55421;51.600;5.718;2022-12-18T10:32:25;27.30;;;12.90;;
68438;SDS011;55421;51.600;5.718;2022-12-18T10:34:57;29.60;;;13.60;;
68438;SDS011;55421;51.600;5.718;2022-12-18T10:37:25;27.70;;;13.00;;
68438;SDS011;55421;51.600;5.718;2022-12-18T10:42:37;26.40;;;13.20;;
68438;SDS011;55421;51.600;5.718;2022-12-18T10:45:15;26.20;;;13.40;;
68438;SDS011;55421;51.600;5.718;2022-12-18T10:47:46;28.90;;;14.00;;
68438;SDS011;55421;51.600;5.718;2022-12-18T10:50:26;24.50;;;12.00;;
68438;SDS011;55421;51.600;5.718;2022-12-18T10:52:58;24.20;;;13.10;;
68438;SDS011;55421;51.600;5.718;2022-12-18T10:55:38;23.20;;;12.50;;
68438;SDS011;55421;51.600;5.718;2022-12-18T10:58:22;23.30;;;12.20;;
68438;SDS011;55421;51.600;5.718;2022-12-18T11:01:16;25.40;;;13.00;;
68438;SDS011;55421;51.600;5.718;2022-12-18T11:03:59;33.30;;;14.20;;
68438;SDS011;55421;51.600;5.718;2022-12-18T11:06:29;22.10;;;11.80;;
68438;SDS011;55421;51.600;5.718;2022-12-18T11:09:20;22.40;;;10.80;;
68438;SDS011;55421;51.600;5.718;2022-12-18T11:11:50;25.90;;;12.90;;
68438;SDS011;55421;51.600;5.718;2022-12-18T11:14:31;19.70;;;10.50;;
68438;SDS011;55421;51.600;5.718;2022-12-18T11:17:01;22.00;;;10.80;;
68438;SDS011;55421;51.600;5.718;2022-12-18T11:19:39;24.90;;;12.80;;
68438;SDS011;55421;51.600;5.718;2022-12-18T11:22:22;23.50;;;11.30;;
68438;SDS011;55421;51.600;5.718;2022-12-18T11:24:55;22.80;;;11.70;;
68438;SDS011;55421;51.600;5.718;2022-12-18T11:27:23;17.70;;;8.50;;
68438;SDS011;55421;51.600;5.718;2022-12-18T11:29:50;18.60;;;10.00;;
68438;SDS011;55421;51.600;5.718;2022-12-18T11:32:26;25.80;;;12.80;;
68438;SDS011;55421;51.600;5.718;2022-12-18T11:35:18;23.30;;;10.90;;
68438;SDS011;55421;51.600;5.718;2022-12-18T11:37:56;19.20;;;10.00;;
68438;SDS011;55421;51.600;5.718;2022-12-18T11:40:32;26.20;;;12.90;;
68438;SDS011;55421;51.600;5.718;2022-12-18T11:43:28;24.90;;;13.10;;
68438;SDS011;55421;51.600;5.718;2022-12-18T11:48:37;27.30;;;13.60;;
68438;SDS011;55421;51.600;5.718;2022-12-18T11:51:14;20.30;;;10.90;;
68438;SDS011;55421;51.600;5.718;2022-12-18T11:53:51;24.60;;;10.90;;
68438;SDS011;55421;51.600;5.718;2022-12-18T11:56:31;25.90;;;13.10;;
68438;SDS011;55421;51.600;5.718;2022-12-18T11:59:29;22.20;;;11.60;;
68438;SDS011;55421;51.600;5.718;2022-12-18T12:02:39;25.30;;;11.90;;
68438;SDS011;55421;51.600;5.718;2022-12-18T12:05:42;25.60;;;12.00;;
68438;SDS011;55421;51.600;5.718;2022-12-18T12:08:28;27.00;;;14.00;;
68438;SDS011;55421;51.600;5.718;2022-12-18T12:20:20;26.90;;;12.20;;
68438;SDS011;55421;51.600;5.718;2022-12-18T12:23:06;27.70;;;13.80;;
68438;SDS011;55421;51.600;5.718;2022-12-18T12:26:01;26.00;;;12.00;;
68438;SDS011;55421;51.600;5.718;2022-12-18T12:28:58;24.40;;;12.80;;
68438;SDS011;55421;51.600;5.718;2022-12-18T12:40:27;28.40;;;13.40;;
68438;SDS011;55421;51.600;5.718;2022-12-18T12:42:59;23.50;;;11.00;;
68438;SDS011;55421;51.600;5.718;2022-12-18T12:45:47;20.70;;;12.10;;
68438;SDS011;55421;51.600;5.718;2022-12-18T12:48:39;24.00;;;12.30;;
68438;SDS011;55421;51.600;5.718;2022-12-18T12:51:13;28.80;;;13.20;;
68438;SDS011;55421;51.600;5.718;2022-12-18T12:53:43;29.00;;;13.30;;
68438;SDS011;55421;51.600;5.718;2022-12-18T12:56:13;28.00;;;14.10;;
68438;SDS011;55421;51.600;5.718;2022-12-18T13:02:41;26.20;;;12.90;;
68438;SDS011;55421;51.600;5.718;2022-12-18T13:05:33;23.40;;;12.40;;
68438;SDS011;55421;51.600;5.718;2022-12-18T13:08:12;21.60;;;11.20;;
68438;SDS011;55421;51.600;5.718;2022-12-18T13:10:53;28.40;;;14.50;;
68438;SDS011;55421;51.600;5.718;2022-12-18T13:13:49;27.90;;;13.30;;
68438;SDS011;55421;51.600;5.718;2022-12-18T13:16:19;27.60;;;13.00;;
68438;SDS011;55421;51.600;5.718;2022-12-18T13:18:54;28.40;;;13.20;;
68438;SDS011;55421;51.600;5.718;2022-12-18T13:21:29;30.10;;;13.80;;
68438;SDS011;55421;51.600;5.718;2022-12-18T13:24:27;19.30;;;9.50;;
68438;SDS011;55421;51.600;5.718;2022-12-18T13:26:56;25.20;;;13.20;;
68438;SDS011;55421;51.600;5.718;2022-12-18T13:29:49;23.50;;;12.00;;
68438;SDS011;55421;51.600;5.718;2022-12-18T13:32:23;25.50;;;12.60;;
68438;SDS011;55421;51.600;5.718;2022-12-18T13:37:53;26.20;;;13.50;;
68438;SDS011;55421;51.600;5.718;2022-12-18T13:43:22;27.60;;;12.40;;
68438;SDS011;55421;51.600;5.718;2022-12-18T13:46:00;23.30;;;11.70;;
68438;SDS011;55421;51.600;5.718;2022-12-18T13:48:32;18.00;;;8.60;;
68438;SDS011;55421;51.600;5.718;2022-12-18T13:51:04;22.40;;;11.20;;
68438;SDS011;55421;51.600;5.718;2022-12-18T13:53:44;27.80;;;13.80;;
68438;SDS011;55421;51.600;5.718;2022-12-18T13:56:23;23.70;;;13.10;;
68438;SDS011;55421;51.600;5.718;2022-12-18T14:01:51;24.30;;;13.10;;
68438;SDS011;55421;51.600;5.718;2022-12-18T14:04:28;24.00;;;12.00;;
68438;SDS011;55421;51.600;5.718;2022-12-18T14:07:06;21.80;;;11.00;;
68438;SDS011;55421;51.600;5.718;2022-12-18T14:09:39;29.00;;;13.70;;
68438;SDS011;55421;51.600;5.718;2022-12-18T14:12:25;20.60;;;9.70;;
68438;SDS011;55421;51.600;5.718;2022-12-18T14:17:57;17.30;;;9.60;;
68438;SDS011;55421;51.600;5.718;2022-12-18T14:20:32;23.80;;;12.00;;
68438;SDS011;55421;51.600;5.718;2022-12-18T14:23:00;24.30;;;12.90;;
68438;SDS011;55421;51.600;5.718;2022-12-18T14:25:28;27.40;;;12.10;;
68438;SDS011;55421;51.600;5.718;2022-12-18T14:28:12;29.90;;;15.30;;
68438;SDS011;55421;51.600;5.718;2022-12-18T14:30:42;18.70;;;8.70;;
68438;SDS011;55421;51.600;5.718;2022-12-18T14:33:16;27.10;;;14.00;;
68438;SDS011;55421;51.600;5.718;2022-12-18T14:35:57;22.30;;;11.30;;
68438;SDS011;55421;51.600;5.718;2022-12-18T14:38:38;31.90;;;14.80;;
68438;SDS011;55421;51.600;5.718;2022-12-18T14:41:10;28.80;;;11.40;;
68438;SDS011;55421;51.600;5.718;2022-12-18T14:43:40;25.10;;;12.70;;
68438;SDS011;55421;51.600;5.718;2022-12-18T14:46:29;26.90;;;13.90;;
68438;SDS011;55421;51.600;5.718;2022-12-18T14:48:56;24.20;;;12.80;;
68438;SDS011;55421;51.600;5.718;2022-12-18T14:51:27;23.90;;;10.50;;
68438;SDS011;55421;51.600;5.718;2022-12-18T14:54:05;30.70;;;15.20;;
68438;SDS011;55421;51.600;5.718;2022-12-18T14:56:54;28.20;;;14.40;;
68438;SDS011;55421;51.600;5.718;2022-12-18T14:59:28;18.60;;;9.40;;
68438;SDS011;55421;51.600;5.718;2022-12-18T15:01:59;25.10;;;11.70;;
68438;SDS011;55421;51.600;5.718;2022-12-18T15:04:45;32.40;;;14.00;;
68438;SDS011;55421;51.600;5.718;2022-12-18T15:07:20;25.70;;;12.90;;
68438;SDS011;55421;51.600;5.718;2022-12-18T15:10:09;29.00;;;14.50;;
68438;SDS011;55421;51.600;5.718;2022-12-18T15:12:45;32.40;;;14.30;;
68438;SDS011;55421;51.600;5.718;2022-12-18T15:18:32;27.30;;;14.60;;
68438;SDS011;55421;51.600;5.718;2022-12-18T15:21:09;31.00;;;14.90;;
68438;SDS011;55421;51.600;5.718;2022-12-18T15:23:48;24.80;;;12.40;;
68438;SDS011;55421;51.600;5.718;2022-12-18T15:26:19;30.70;;;14.50;;
68438;SDS011;55421;51.600;5.718;2022-12-18T15:28:52;28.30;;;13.20;;
68438;SDS011;55421;51.600;5.718;2022-12-18T15:31:30;30.90;;;14.20;;
68438;SDS011;55421;51.600;5.718;2022-12-18T15:34:10;29.20;;;14.00;;
68438;SDS011;55421;51.600;5.718;2022-12-18T15:36:39;28.50;;;11.70;;
68438;SDS011;55421;51.600;5.718;2022-12-18T15:39:10;34.40;;;16.00;;
68438;SDS011;55421;51.600;5.718;2022-12-18T15:41:38;31.60;;;15.70;;
68438;SDS011;55421;51.600;5.718;2022-12-18T15:44:24;29.00;;;14.20;;
68438;SDS011;55421;51.600;5.718;2022-12-18T15:46:53;29.10;;;14.40;;
68438;SDS011;55421;51.600;5.718;2022-12-18T15:49:19;33.70;;;14.40;;
68438;SDS011;55421;51.600;5.718;2022-12-18T15:51:54;31.20;;;15.10;;
68438;SDS011;55421;51.600;5.718;2022-12-18T15:54:24;32.50;;;16.30;;
68438;SDS011;55421;51.600;5.718;2022-12-18T15:57:10;32.50;;;14.80;;
68438;SDS011;55421;51.600;5.718;2022-12-18T15:59:53;26.80;;;14.30;;
68438;SDS011;55421;51.600;5.718;2022-12-18T16:02:22;31.60;;;14.80;;
68438;SDS011;55421;51.600;5.718;2022-12-18T16:04:51;32.50;;;15.40;;
68438;SDS011;55421;51.600;5.718;2022-12-18T16:07:18;22.70;;;11.50;;
68438;SDS011;55421;51.600;5.718;2022-12-18T16:09:44;31.50;;;14.30;;
68438;SDS011;55421;51.600;5.718;2022-12-18T16:12:17;50.60;;;20.30;;
68438;SDS011;55421;51.600;5.718;2022-12-18T16:14:49;34.10;;;16.90;;
68438;SDS011;55421;51.600;5.718;2022-12-18T16:17:15;29.70;;;14.00;;
68438;SDS011;55421;51.600;5.718;2022-12-18T16:19:42;26.40;;;12.70;;
68438;SDS011;55421;51.600;5.718;2022-12-18T16:22:21;31.80;;;14.10;;
68438;SDS011;55421;51.600;5.718;2022-12-18T16:24:50;33.30;;;14.90;;
68438;SDS011;55421;51.600;5.718;2022-12-18T16:27:18;33.10;;;15.90;;